createdAt,value
2023-01-28T00:01:23.112Z,60.10
2023-01-28T00:03:54.360Z,60.10
2023-01-28T00:06:22.705Z,60.20
2023-01-28T00:08:50.445Z,60.30
2023-01-28T00:11:19.853Z,60.30
2023-01-28T00:13:54.537Z,60.20
2023-01-28T00:16:22.943Z,60.10
2023-01-28T00:21:37.366Z,60.20
2023-01-28T00:24:09.348Z,60.40
2023-01-28T00:26:41.271Z,60.20
2023-01-28T00:29:11.286Z,60.30
2023-01-28T00:31:43.719Z,60.30
2023-01-28T00:34:12.823Z,60.30
2023-01-28T00:36:43.201Z,60.30
2023-01-28T00:39:18.473Z,60.50
2023-01-28T00:41:50.524Z,60.40
2023-01-28T00:44:22.379Z,60.50
2023-01-28T00:46:54.992Z,60.50
2023-01-28T00:49:26.576Z,60.50
2023-01-28T00:51:57.899Z,60.60
2023-01-28T00:54:30.154Z,60.50
2023-01-28T00:57:01.673Z,60.50
2023-01-28T00:59:30.426Z,60.60
2023-01-28T01:02:12.777Z,60.70
2023-01-28T01:04:45.813Z,60.70
2023-01-28T01:07:17.390Z,60.70
2023-01-28T01:09:46.490Z,60.70
2023-01-28T01:12:15.393Z,60.70
2023-01-28T01:14:45.366Z,60.80
2023-01-28T01:17:15.170Z,60.80
2023-01-28T01:19:46.676Z,60.70
2023-01-28T01:22:20.891Z,60.80
2023-01-28T01:24:48.699Z,60.80
2023-01-28T01:27:18.937Z,61.00
2023-01-28T01:29:50.084Z,60.90
2023-01-28T01:32:19.624Z,61.00
2023-01-28T01:34:48.775Z,60.90
2023-01-28T01:37:20.949Z,61.00
2023-01-28T01:39:49.935Z,61.00
2023-01-28T01:42:19.655Z,61.00
2023-01-28T01:45:14.430Z,61.00
2023-01-28T01:47:53.088Z,61.10
2023-01-28T01:50:29.078Z,61.10
2023-01-28T01:53:26.240Z,61.10
2023-01-28T01:56:02.992Z,61.20
2023-01-28T01:58:34.476Z,61.10
2023-01-28T02:01:04.296Z,61.20
2023-01-28T02:03:54.219Z,61.20
2023-01-28T02:06:23.585Z,61.30
2023-01-28T02:08:58.004Z,61.30
2023-01-28T02:14:22.424Z,61.40
2023-01-28T02:16:59.868Z,61.40
2023-01-28T02:19:33.008Z,61.40
2023-01-28T02:22:39.794Z,61.40
2023-01-28T02:25:37.353Z,61.40
2023-01-28T02:28:23.081Z,61.40
2023-01-28T02:31:32.441Z,61.60
2023-01-28T02:34:27.969Z,61.60
2023-01-28T02:37:22.809Z,61.60
2023-01-28T02:40:26.301Z,61.70
2023-01-28T02:43:00.057Z,61.60
2023-01-28T02:45:52.716Z,61.60
2023-01-28T02:48:26.238Z,61.90
2023-01-28T02:51:15.257Z,61.70
2023-01-28T02:54:02.227Z,61.80
2023-01-28T02:59:50.606Z,61.60
2023-01-28T03:03:02.580Z,61.80
2023-01-28T03:05:38.252Z,61.70
2023-01-28T03:08:29.432Z,61.80
2023-01-28T03:11:19.346Z,61.80
2023-01-28T03:14:08.663Z,61.70
2023-01-28T03:17:00.311Z,62.00
2023-01-28T03:19:47.652Z,61.90
2023-01-28T03:22:37.525Z,61.90
2023-01-28T03:25:31.391Z,61.90
2023-01-28T03:28:24.729Z,61.90
2023-01-28T03:31:24.292Z,62.00
2023-01-28T03:34:20.960Z,62.00
2023-01-28T03:36:56.979Z,62.00
2023-01-28T03:39:34.508Z,62.10
2023-01-28T03:42:08.053Z,62.00
2023-01-28T03:47:37.951Z,62.10
2023-01-28T03:50:09.788Z,62.00
2023-01-28T03:52:41.291Z,61.90
2023-01-28T03:55:25.861Z,62.00
2023-01-28T03:57:56.304Z,62.00
2023-01-28T04:00:27.826Z,62.10
2023-01-28T04:02:58.099Z,62.10
2023-01-28T04:05:29.052Z,62.10
2023-01-28T04:07:56.668Z,62.00
2023-01-28T04:10:24.001Z,62.00
2023-01-28T04:13:20.230Z,62.10
2023-01-28T04:15:51.975Z,62.00
2023-01-28T04:18:29.531Z,62.00
2023-01-28T04:20:56.255Z,61.90
2023-01-28T04:23:29.839Z,62.00
2023-01-28T04:26:01.343Z,62.00
2023-01-28T04:28:31.129Z,62.10
2023-01-28T04:31:02.891Z,62.00
2023-01-28T04:33:31.567Z,62.00
2023-01-28T04:36:03.524Z,62.00
2023-01-28T04:38:34.470Z,62.10
2023-01-28T04:41:05.694Z,62.10
2023-01-28T04:43:36.181Z,62.10
2023-01-28T04:46:08.965Z,62.10
2023-01-28T04:48:39.549Z,62.10
2023-01-28T04:51:10.914Z,62.00
2023-01-28T04:53:41.125Z,62.10
2023-01-28T04:56:10.347Z,62.10
2023-01-28T04:58:43.445Z,62.10
2023-01-28T05:01:13.972Z,62.10
2023-01-28T05:03:44.719Z,62.10
2023-01-28T05:06:14.022Z,62.20
2023-01-28T05:08:48.624Z,62.20
2023-01-28T05:11:18.909Z,62.20
2023-01-28T05:13:45.599Z,62.30
2023-01-28T05:16:13.656Z,62.20
2023-01-28T05:18:46.733Z,62.20
2023-01-28T05:21:18.162Z,62.20
2023-01-28T05:23:49.598Z,62.20
2023-01-28T05:26:18.602Z,62.20
2023-01-28T05:28:49.617Z,62.20
2023-01-28T05:31:21.335Z,62.10
2023-01-28T05:33:51.505Z,62.20
2023-01-28T05:36:22.767Z,62.30
2023-01-28T05:38:53.645Z,62.20
2023-01-28T05:41:25.436Z,62.20
2023-01-28T05:43:53.304Z,62.20
2023-01-28T05:46:24.777Z,62.10
2023-01-28T05:48:55.886Z,62.10
2023-01-28T05:51:24.483Z,62.10
2023-01-28T05:53:54.626Z,62.10
2023-01-28T05:56:22.933Z,62.00
2023-01-28T05:58:53.967Z,62.60
2023-01-28T06:01:26.301Z,61.90
2023-01-28T06:04:01.558Z,61.80
2023-01-28T06:06:33.185Z,61.80
2023-01-28T06:09:03.617Z,61.70
2023-01-28T06:11:39.517Z,61.70
2023-01-28T06:14:10.051Z,61.70
2023-01-28T06:16:40.424Z,61.70
2023-01-28T06:19:08.566Z,61.70
2023-01-28T06:21:38.899Z,61.50
2023-01-28T06:24:09.465Z,61.60
2023-01-28T06:26:40.628Z,61.50
2023-01-28T06:29:10.965Z,61.40
2023-01-28T06:31:38.956Z,61.40
2023-01-28T06:34:07.050Z,61.40
2023-01-28T06:36:40.474Z,61.50
2023-01-28T06:39:09.884Z,61.50
2023-01-28T06:41:41.100Z,61.40
2023-01-28T06:44:16.456Z,61.90
2023-01-28T06:46:45.891Z,62.30
2023-01-28T06:49:14.048Z,63.30
2023-01-28T06:51:44.716Z,62.90
2023-01-28T06:54:13.695Z,62.80
2023-01-28T06:56:46.460Z,62.70
2023-01-28T06:59:22.601Z,62.70
2023-01-28T07:01:51.576Z,62.50
2023-01-28T07:04:21.804Z,62.50
2023-01-28T07:06:51.016Z,62.40
2023-01-28T07:09:22.071Z,62.10
2023-01-28T07:11:55.899Z,62.20
2023-01-28T07:14:23.530Z,62.20
2023-01-28T07:16:55.360Z,62.10
2023-01-28T07:19:26.392Z,62.00
2023-01-28T07:22:00.794Z,62.00
2023-01-28T07:24:36.105Z,62.00
2023-01-28T07:29:50.424Z,61.90
2023-01-28T07:32:20.889Z,62.00
2023-01-28T07:34:53.325Z,62.00
2023-01-28T07:37:27.713Z,61.90
2023-01-28T07:39:56.778Z,62.00
2023-01-28T07:42:26.628Z,61.90
2023-01-28T07:44:54.835Z,61.70
2023-01-28T07:47:25.247Z,61.60
2023-01-28T07:49:56.132Z,61.50
2023-01-28T07:52:26.009Z,61.30
2023-01-28T07:54:57.889Z,61.20
2023-01-28T07:57:32.556Z,61.00
2023-01-28T08:00:03.881Z,60.80
2023-01-28T08:02:35.194Z,60.70
2023-01-28T08:05:05.872Z,60.70
2023-01-28T08:07:37.570Z,60.50
2023-01-28T08:10:07.607Z,60.30
2023-01-28T08:12:36.781Z,60.20
2023-01-28T08:15:08.301Z,60.10
2023-01-28T08:17:37.400Z,60.00
2023-01-28T08:20:10.196Z,59.90
2023-01-28T08:22:36.937Z,59.90
2023-01-28T08:25:07.721Z,59.70
2023-01-28T08:27:37.789Z,59.60
2023-01-28T08:30:13.489Z,59.60
2023-01-28T08:32:43.672Z,59.40
2023-01-28T08:35:18.291Z,59.30
2023-01-28T08:37:50.444Z,59.30
2023-01-28T08:40:17.988Z,59.20
2023-01-28T08:42:55.227Z,59.20
2023-01-28T08:45:29.985Z,59.00
2023-01-28T08:48:08.501Z,59.00
2023-01-28T08:50:40.986Z,59.00
2023-01-28T08:53:20.177Z,59.10
2023-01-28T08:55:50.631Z,58.90
2023-01-28T08:58:21.333Z,58.90
2023-01-28T09:00:50.537Z,59.00
2023-01-28T09:03:19.879Z,59.30
2023-01-28T09:05:52.033Z,59.30
2023-01-28T09:08:24.333Z,59.20
2023-01-28T09:11:05.810Z,59.20
2023-01-28T09:13:34.095Z,59.20
2023-01-28T09:16:04.747Z,59.30
2023-01-28T09:18:38.230Z,59.20
2023-01-28T09:21:11.669Z,59.20
2023-01-28T09:23:42.923Z,59.20
2023-01-28T09:26:14.776Z,59.20
2023-01-28T09:28:46.967Z,59.10
2023-01-28T09:31:16.934Z,59.10
2023-01-28T09:33:48.277Z,59.20
2023-01-28T09:36:16.050Z,59.10
2023-01-28T09:38:47.492Z,59.10
2023-01-28T09:42:03.031Z,59.10
2023-01-28T09:44:46.492Z,59.10
2023-01-28T09:47:51.519Z,59.10
2023-01-28T09:50:52.924Z,59.10
2023-01-28T09:53:36.145Z,59.10
2023-01-28T09:56:14.350Z,59.20
2023-01-28T09:58:44.034Z,59.20
2023-01-28T10:01:42.812Z,59.30
2023-01-28T10:04:29.747Z,59.10
2023-01-28T10:07:28.239Z,59.20
2023-01-28T10:10:15.580Z,59.80
2023-01-28T10:12:58.138Z,59.30
2023-01-28T10:15:59.123Z,59.20
2023-01-28T10:19:00.813Z,59.20
2023-01-28T10:21:37.007Z,59.20
2023-01-28T10:24:14.337Z,59.20
2023-01-28T10:26:48.125Z,59.20
2023-01-28T10:29:19.062Z,59.20
2023-01-28T10:32:20.758Z,59.20
2023-01-28T10:34:57.642Z,59.20
2023-01-28T10:37:26.251Z,59.20
2023-01-28T10:40:03.483Z,59.20
2023-01-28T10:42:38.951Z,59.20
2023-01-28T10:45:29.560Z,59.30
2023-01-28T10:48:23.493Z,59.20
2023-01-28T10:51:01.934Z,59.30
2023-01-28T10:53:49.772Z,59.20
2023-01-28T10:56:25.486Z,59.40
2023-01-28T10:59:01.626Z,59.30
2023-01-28T11:01:54.731Z,59.30
2023-01-28T11:04:34.595Z,59.30
2023-01-28T11:07:21.129Z,59.30
2023-01-28T11:09:54.405Z,59.30
2023-01-28T11:12:33.231Z,59.20
2023-01-28T11:15:06.936Z,59.30
2023-01-28T11:17:41.004Z,59.20
2023-01-28T11:20:29.955Z,59.30
2023-01-28T11:23:02.595Z,59.20
2023-01-28T11:25:46.605Z,59.20
2023-01-28T11:28:22.647Z,59.20
2023-01-28T11:30:59.204Z,59.10
2023-01-28T11:34:07.913Z,59.20
2023-01-28T11:36:36.060Z,59.30
2023-01-28T11:39:33.744Z,59.30
2023-01-28T11:42:22.533Z,59.30
2023-01-28T11:44:52.259Z,59.30
2023-01-28T11:47:46.151Z,59.30
2023-01-28T11:50:36.746Z,59.30
2023-01-28T11:53:17.939Z,59.30
2023-01-28T11:56:25.992Z,59.30
2023-01-28T11:59:15.892Z,59.20
2023-01-28T12:02:20.573Z,59.20
2023-01-28T12:05:05.726Z,59.20
2023-01-28T12:08:17.588Z,59.10
2023-01-28T12:11:52.789Z,58.90
2023-01-28T12:14:44.048Z,59.00
2023-01-28T12:17:44.893Z,59.00
2023-01-28T12:20:44.794Z,59.00
2023-01-28T12:23:51.065Z,59.00
2023-01-28T12:26:43.786Z,58.90
2023-01-28T12:29:29.975Z,58.90
2023-01-28T12:32:42.034Z,58.90
2023-01-28T12:35:54.066Z,58.80
2023-01-28T12:38:36.201Z,58.90
2023-01-28T12:41:40.990Z,58.80
2023-01-28T12:44:29.339Z,58.70
2023-01-28T12:47:07.461Z,58.70
2023-01-28T12:49:37.168Z,58.50
2023-01-28T12:52:24.378Z,58.50
2023-01-28T12:55:23.669Z,58.50
2023-01-28T12:57:56.195Z,58.50
2023-01-28T13:00:44.990Z,58.40
2023-01-28T13:03:21.351Z,58.40
2023-01-28T13:06:35.891Z,58.40
2023-01-28T13:09:21.063Z,58.40
2023-01-28T13:11:55.350Z,58.40
2023-01-28T13:14:31.025Z,58.50
2023-01-28T13:17:32.596Z,58.50
2023-01-28T13:20:03.045Z,58.40
2023-01-28T13:22:38.684Z,58.50
2023-01-28T13:25:28.012Z,58.50
2023-01-28T13:28:04.159Z,58.50
2023-01-28T13:30:34.658Z,58.50
2023-01-28T13:33:42.484Z,58.40
2023-01-28T13:36:23.430Z,58.40
2023-01-28T13:39:11.845Z,58.50
2023-01-28T13:42:05.095Z,58.40
2023-01-28T13:44:35.314Z,58.50
2023-01-28T13:47:19.136Z,58.50
2023-01-28T13:50:08.646Z,58.40
2023-01-28T13:53:05.211Z,58.30
2023-01-28T13:55:56.873Z,58.20
2023-01-28T13:58:50.780Z,58.30
2023-01-28T14:01:55.457Z,58.20
2023-01-28T14:04:45.309Z,58.20
2023-01-28T14:07:43.277Z,58.30
2023-01-28T14:10:48.563Z,58.40
2023-01-28T14:13:37.144Z,58.40
2023-01-28T14:16:43.145Z,58.40
2023-01-28T14:19:24.361Z,58.40
2023-01-28T14:21:54.292Z,58.50
2023-01-28T14:27:44.449Z,58.40
2023-01-28T14:30:58.482Z,58.30
2023-01-28T14:33:31.373Z,58.30
2023-01-28T14:35:59.693Z,58.30
2023-01-28T14:38:28.504Z,58.30
2023-01-28T14:41:02.192Z,58.30
2023-01-28T14:43:35.421Z,58.20
2023-01-28T14:49:52.958Z,58.20
2023-01-28T14:52:49.032Z,58.20
2023-01-28T14:55:35.813Z,58.20
2023-01-28T14:58:15.879Z,58.20
2023-01-28T15:01:06.836Z,58.20
2023-01-28T15:03:39.848Z,58.20
2023-01-28T15:06:17.997Z,58.20
2023-01-28T15:08:48.508Z,58.20
2023-01-28T15:11:29.574Z,58.30
2023-01-28T15:14:02.803Z,58.30
2023-01-28T15:16:36.007Z,58.40
2023-01-28T15:19:09.991Z,58.40
2023-01-28T15:21:40.434Z,58.40
2023-01-28T15:24:19.337Z,58.40
2023-01-28T15:26:52.280Z,58.40
2023-01-28T15:29:43.086Z,58.40
2023-01-28T15:32:31.189Z,58.40
2023-01-28T15:35:01.189Z,58.40
2023-01-28T15:37:29.420Z,58.50
2023-01-28T15:40:11.933Z,58.40
2023-01-28T15:42:40.620Z,58.50
2023-01-28T15:45:28.440Z,58.40
2023-01-28T15:48:04.674Z,58.40
2023-01-28T15:50:46.491Z,58.40
2023-01-28T15:53:18.482Z,58.40
2023-01-28T15:55:49.394Z,58.40
2023-01-28T15:58:36.755Z,58.40
2023-01-28T16:01:15.272Z,58.40
2023-01-28T16:03:49.311Z,58.50
2023-01-28T16:06:24.095Z,58.40
2023-01-28T16:09:07.072Z,58.40
2023-01-28T16:11:52.172Z,58.40
2023-01-28T16:14:32.784Z,58.40
2023-01-28T16:17:04.087Z,58.40
2023-01-28T16:19:52.921Z,58.40
2023-01-28T16:22:39.254Z,58.40
2023-01-28T16:28:22.257Z,58.30
2023-01-28T16:30:51.895Z,58.30
2023-01-28T16:33:25.464Z,58.30
2023-01-28T16:38:37.895Z,58.20
2023-01-28T16:41:30.253Z,58.20
2023-01-28T16:44:17.071Z,58.10
2023-01-28T16:46:49.759Z,58.10
2023-01-28T16:49:23.846Z,58.20
2023-01-28T16:51:53.622Z,58.40
2023-01-28T16:54:22.875Z,58.90
2023-01-28T16:56:57.313Z,59.40
2023-01-28T16:59:25.183Z,59.40
2023-01-28T17:01:56.947Z,59.20
2023-01-28T17:04:26.265Z,59.00
2023-01-28T17:06:56.191Z,59.10
2023-01-28T17:09:27.682Z,59.20
2023-01-28T17:11:57.580Z,59.10
2023-01-28T17:14:29.203Z,59.10
2023-01-28T17:16:57.409Z,59.50
2023-01-28T17:19:25.630Z,59.60
2023-01-28T17:21:54.237Z,59.40
2023-01-28T17:24:23.470Z,59.10
2023-01-28T17:26:58.087Z,59.00
2023-01-28T17:29:31.592Z,58.90
2023-01-28T17:32:01.771Z,58.70
2023-01-28T17:34:34.271Z,58.70
2023-01-28T17:37:02.688Z,58.60
2023-01-28T17:39:34.622Z,58.50
2023-01-28T17:42:07.213Z,58.40
2023-01-28T17:44:38.170Z,58.40
2023-01-28T17:47:09.962Z,58.40
2023-01-28T17:49:45.806Z,58.40
2023-01-28T17:52:13.471Z,58.30
2023-01-28T17:54:42.965Z,58.30
2023-01-28T17:57:11.374Z,58.30
2023-01-28T17:59:42.474Z,58.30
2023-01-28T18:02:15.344Z,58.30
2023-01-28T18:04:43.597Z,58.40
2023-01-28T18:07:14.607Z,58.40
2023-01-28T18:09:44.461Z,58.40
2023-01-28T18:12:15.728Z,58.40
2023-01-28T18:14:44.792Z,58.50
2023-01-28T18:17:16.665Z,58.40
2023-01-28T18:19:47.040Z,58.40
2023-01-28T18:22:16.262Z,58.40
2023-01-28T18:24:48.445Z,58.40
2023-01-28T18:27:19.885Z,58.40
2023-01-28T18:29:54.060Z,58.30
2023-01-28T18:32:23.893Z,58.40
2023-01-28T18:34:54.634Z,58.30
2023-01-28T18:37:23.721Z,58.30
2023-01-28T18:39:55.144Z,58.30
2023-01-28T18:42:30.719Z,58.30
2023-01-28T18:44:59.515Z,58.30
2023-01-28T18:47:26.437Z,58.30
2023-01-28T18:49:55.942Z,58.20
2023-01-28T18:52:26.320Z,58.30
2023-01-28T18:55:00.133Z,58.40
2023-01-28T18:57:30.473Z,58.40
2023-01-28T19:00:00.702Z,58.30
2023-01-28T19:02:30.525Z,58.20
2023-01-28T19:04:57.311Z,58.30
2023-01-28T19:07:27.709Z,58.20
2023-01-28T19:09:58.154Z,58.20
2023-01-28T19:12:28.496Z,58.20
2023-01-28T19:14:58.173Z,58.20
2023-01-28T19:17:25.987Z,58.10
2023-01-28T19:19:57.790Z,58.10
2023-01-28T19:22:26.459Z,58.10
2023-01-28T19:24:55.185Z,58.10
2023-01-28T19:27:26.900Z,58.00
2023-01-28T19:29:58.505Z,58.00
2023-01-28T19:35:11.739Z,58.00
2023-01-28T19:37:39.739Z,58.00
2023-01-28T19:42:57.848Z,58.00
2023-01-28T19:45:26.786Z,58.00
2023-01-28T19:47:59.017Z,58.00
2023-01-28T19:50:28.109Z,58.00
2023-01-28T19:52:56.402Z,58.00
2023-01-28T19:55:26.940Z,58.00
2023-01-28T19:57:55.931Z,57.90
2023-01-28T20:00:24.825Z,57.90
2023-01-28T20:02:55.429Z,57.90
2023-01-28T20:05:24.539Z,57.90
2023-01-28T20:07:56.872Z,57.90
2023-01-28T20:10:26.867Z,57.80
2023-01-28T20:12:58.579Z,57.90
2023-01-28T20:15:29.848Z,57.80
2023-01-28T20:18:00.329Z,57.80
2023-01-28T20:20:31.747Z,57.80
2023-01-28T20:23:02.963Z,57.80
2023-01-28T20:25:33.121Z,57.80
2023-01-28T20:28:01.935Z,57.80
2023-01-28T20:30:30.036Z,57.80
2023-01-28T20:32:58.113Z,57.80
2023-01-28T20:35:28.742Z,57.80
2023-01-28T20:38:02.015Z,57.80
2023-01-28T20:40:35.461Z,57.70
2023-01-28T20:43:08.833Z,57.80
2023-01-28T20:45:47.085Z,57.80
2023-01-28T20:48:15.895Z,57.70
2023-01-28T20:50:46.257Z,57.70
2023-01-28T20:53:18.416Z,57.70
2023-01-28T20:55:56.930Z,57.70
2023-01-28T20:58:26.933Z,57.70
2023-01-28T21:00:57.179Z,57.90
2023-01-28T21:03:26.733Z,57.90
2023-01-28T21:05:54.596Z,58.10
2023-01-28T21:08:23.525Z,58.10
2023-01-28T21:10:53.136Z,58.10
2023-01-28T21:13:23.306Z,57.90
2023-01-28T21:16:00.733Z,57.90
2023-01-28T21:21:24.166Z,57.90
2023-01-28T21:23:58.105Z,57.80
2023-01-28T21:26:32.458Z,57.90
2023-01-28T21:29:02.160Z,57.90
2023-01-28T21:31:43.169Z,57.80
2023-01-28T21:34:13.150Z,57.90
2023-01-28T21:36:42.601Z,57.90
2023-01-28T21:39:12.293Z,57.80
2023-01-28T21:41:42.885Z,57.80
2023-01-28T21:44:16.970Z,57.70
2023-01-28T21:46:48.274Z,57.70
2023-01-28T21:49:20.204Z,57.70
2023-01-28T21:51:51.024Z,57.70
2023-01-28T21:54:19.781Z,57.70
2023-01-28T21:56:51.719Z,57.70
2023-01-28T21:59:31.243Z,57.60
2023-01-28T22:02:15.060Z,57.60
2023-01-28T22:04:53.102Z,57.80
2023-01-28T22:07:23.722Z,57.90
2023-01-28T22:09:55.433Z,58.20
2023-01-28T22:12:25.193Z,58.20
2023-01-28T22:14:55.245Z,58.20
2023-01-28T22:17:24.616Z,58.30
2023-01-28T22:19:57.491Z,58.40
2023-01-28T22:22:29.039Z,58.40
2023-01-28T22:25:02.758Z,58.40
2023-01-28T22:27:33.997Z,58.50
2023-01-28T22:30:05.509Z,58.50
2023-01-28T22:32:34.765Z,58.50
2023-01-28T22:35:07.338Z,58.50
2023-01-28T22:37:42.703Z,58.50
2023-01-28T22:40:15.241Z,58.60
2023-01-28T22:42:46.228Z,58.50
2023-01-28T22:45:18.862Z,58.60
2023-01-28T22:47:49.259Z,58.70
2023-01-28T22:50:18.625Z,58.70
2023-01-28T22:52:50.425Z,58.70
2023-01-28T22:55:21.827Z,58.70
2023-01-28T22:57:53.892Z,58.70
2023-01-28T23:00:35.481Z,58.80
2023-01-28T23:03:07.041Z,58.80
2023-01-28T23:05:40.029Z,58.80
2023-01-28T23:08:14.332Z,58.70
2023-01-28T23:10:53.621Z,58.80
2023-01-28T23:13:24.089Z,58.80
2023-01-28T23:16:13.368Z,58.90
2023-01-28T23:18:41.812Z,58.90
2023-01-28T23:21:53.508Z,58.90
2023-01-28T23:24:26.698Z,58.90
2023-01-28T23:26:56.744Z,59.00
2023-01-28T23:29:54.621Z,59.00
2023-01-28T23:32:24.281Z,59.00
2023-01-28T23:34:57.742Z,59.00
2023-01-28T23:37:26.815Z,59.00
2023-01-28T23:40:00.302Z,59.10
2023-01-28T23:42:31.170Z,59.10
2023-01-28T23:45:03.647Z,59.10
2023-01-28T23:47:32.345Z,59.10
2023-01-28T23:50:05.434Z,59.10
2023-01-28T23:55:19.704Z,59.20
2023-01-28T23:57:50.941Z,59.20
